Time;durP1;ratioP1;P1;durP2;ratioP2;P2;SDS_P1;SDS_P2;PMS_P1;PMS_P2;Temp;Humidity;BMP_temperature;BMP_pressure;BME280_temperature;BME280_humidity;BME280_pressure;Samples;Min_cycle;Max_cycle;Signal;HPM_P1;HPM_P2
2022/05/28 00:00:54;;;;;;;14.88;2.10;;;;;;;;;;4929356;23;20067;-87
2022/05/28 00:03:21;;;;;;;13.52;2.47;;;;;;;;;;4878520;29;20055;-88
2022/05/28 00:22:55;;;;;;;12.45;3.05;;;;;;;;;;4937859;29;20066;-87
2022/05/28 00:26:00;;;;;;;13.55;2.00;;;;;;;;;;4904532;29;20062;-87
2022/05/28 00:28:57;;;;;;;16.65;2.28;;;;;;;;;;4919845;29;20131;-87
2022/05/28 00:37:49;;;;;;;18.65;2.10;;;;;;;;;;4891007;29;20072;-86
2022/05/28 00:40:26;;;;;;;10.20;1.73;;;;;;;;;;4872645;29;20152;-87
2022/05/28 00:43:45;;;;;;;14.85;2.10;;;11.20;99.90;;;;;;4860227;29;20037;-87
2022/05/28 00:46:39;;;;;;;13.40;2.42;;;;;;;;;;4890388;29;20052;-88
2022/05/28 00:52:21;;;;;;;18.10;2.10;;;;;;;;;;4892286;29;20112;-88
2022/05/28 00:54:48;;;;;;;13.90;1.95;;;;;;;;;;4896895;29;20168;-87
2022/05/28 01:00:34;;;;;;;9.38;2.10;;;;;;;;;;4900258;29;20108;-88
2022/05/28 01:10:55;;;;;;;17.67;2.40;;;;;;;;;;4915325;29;20078;-87
2022/05/28 01:14:02;;;;;;;11.38;2.40;;;;;;;;;;4916852;29;20098;-86
2022/05/28 01:17:13;;;;;;;16.05;2.75;;;;;;;;;;4911511;29;20047;-86
2022/05/28 01:20:08;;;;;;;12.25;1.80;;;;;;;;;;4916441;29;20159;-85
2022/05/28 01:23:08;;;;;;;14.32;2.47;;;;;;;;;;4914990;29;20052;-86
2022/05/28 01:25:53;;;;;;;18.00;2.83;;;;;;;;;;4903073;29;20528;-86
2022/05/28 01:34:43;;;;;;;21.42;2.80;;;;;;;;;;4922575;29;20388;-87
2022/05/28 01:46:53;;;;;;;20.52;2.88;;;;;;;;;;4959786;23;19978;-87
2022/05/28 01:49:37;;;;;;;20.35;3.15;;;;;;;;;;4901630;29;20056;-90
2022/05/28 02:00:09;;;;;;;16.17;2.70;;;;;;;;;;4943634;23;20543;-87
2022/05/28 02:02:35;;;;;;;;;;;;;;;;;;4920198;29;20118;-88
2022/05/28 02:11:38;;;;;;;11.75;2.75;;;;;;;;;;5041653;23;20124;-87
2022/05/28 02:14:30;;;;;;;18.13;2.80;;;;;;;;;;4949981;23;20111;-86
2022/05/28 02:43:41;;;;;;;18.10;3.30;;;;;;;;;;4926976;29;20076;-88
2022/05/28 03:07:11;;;;;;;15.52;3.20;;;;;;;;;;5063190;23;20082;-87
2022/05/28 03:12:42;;;;;;;16.80;3.53;;;;;;;;;;4912379;29;20705;-87
2022/05/28 03:15:22;;;;;;;22.42;2.92;;;;;;;;;;4890722;29;20075;-88
2022/05/28 03:17:48;;;;;;;14.40;2.85;;;;;;;;;;4917672;29;20052;-88
2022/05/28 03:23:14;;;;;;;21.20;3.13;;;;;;;;;;4923179;23;20044;-88
2022/05/28 03:35:18;;;;;;;17.17;3.53;;;;;;;;;;4945025;23;20090;-89
2022/05/28 03:37:44;;;;;;;19.40;3.05;;;;;;;;;;4899933;29;20052;-88
2022/05/28 03:43:42;;;;;;;15.45;2.42;;;;;;;;;;5454466;23;20106;-87
2022/05/28 03:49:30;;;;;;;20.33;3.58;;;;;;;;;;4914746;29;20083;-86
2022/05/28 03:52:17;;;;;;;16.70;2.60;;;10.90;99.90;;;;;;4933202;29;20098;-87
2022/05/28 04:00:55;;;;;;;16.73;2.85;;;;;;;;;;4965600;28;20367;-87
2022/05/28 04:03:23;;;;;;;22.40;3.63;;;;;;;;;;4953964;28;20439;-88
2022/05/28 04:06:20;;;;;;;17.27;3.08;;;11.00;99.90;;;;;;4998309;23;20127;-87
2022/05/28 04:11:53;;;;;;;21.30;3.55;;;;;;;;;;4952925;23;20113;-88
2022/05/28 04:27:55;;;;;;;9.57;2.72;;;;;;;;;;4877317;29;20081;-89
2022/05/28 04:30:41;;;;;;;11.38;1.85;;;;;;;;;;4854743;29;20435;-90
2022/05/28 04:33:20;;;;;;;10.77;2.13;;;;;;;;;;4921574;29;20048;-91
2022/05/28 04:51:33;;;;;;;16.80;2.90;;;;;;;;;;5176155;23;19922;-86
2022/05/28 05:16:41;;;;;;;13.82;2.60;;;;;;;;;;4940349;29;20182;-87
2022/05/28 05:19:43;;;;;;;20.38;3.45;;;;;;;;;;4932918;29;20107;-90
2022/05/28 05:22:38;;;;;;;17.40;2.97;;;;;;;;;;4958013;28;20079;-88
2022/05/28 05:34:52;;;;;;;17.73;3.42;;;11.50;99.90;;;;;;5054169;23;20059;-88
2022/05/28 05:37:34;;;;;;;;;;;;;;;;;;;;;
2022/05/28 05:40:10;;;;;;;18.20;3.15;;;;;;;;;;4961782;23;20051;-86
2022/05/28 05:52:27;;;;;;;18.05;3.03;;;;;;;;;;4913605;29;20056;-88
2022/05/28 05:55:29;;;;;;;;;;;;;;;;;;;;;
2022/05/28 05:58:52;;;;;;;15.02;3.53;;;;;;;;;;4919111;29;20066;-87
2022/05/28 06:15:41;;;;;;;16.52;3.40;;;;;;;;;;4955060;28;20034;-87
2022/05/28 06:21:39;;;;;;;16.15;3.03;;;;;;;;;;4929650;29;20055;-87
2022/05/28 06:24:08;;;;;;;20.77;4.22;;;;;;;;;;4928270;28;20172;-86
2022/05/28 06:26:50;;;;;;;21.00;3.63;;;;;;;;;;4954101;28;20036;-86
2022/05/28 06:29:34;;;;;;;24.90;3.85;;;;;;;;;;4917319;29;20130;-86
2022/05/28 06:32:02;;;;;;;23.38;3.38;;;;;;;;;;4952385;28;20043;-87
2022/05/28 06:34:37;;;;;;;16.60;3.30;;;;;;;;;;4913715;28;20039;-87
2022/05/28 06:37:16;;;;;;;20.48;4.00;;;;;;;;;;4935257;29;20062;-84
2022/05/28 06:39:42;;;;;;;24.83;3.92;;;;;;;;;;4951878;28;20043;-85
2022/05/28 06:42:30;;;;;;;17.52;2.92;;;;;;;;;;4947370;28;20142;-85
2022/05/28 06:45:02;;;;;;;26.40;3.65;;;;;;;;;;4950508;28;20039;-84
2022/05/28 06:51:05;;;;;;;20.77;4.00;;;;;;;;;;4953514;28;20054;-85
2022/05/28 06:53:53;;;;;;;16.20;3.58;;;;;;;;;;4942784;28;20134;-83
2022/05/28 06:56:25;;;;;;;19.90;4.03;;;;;;;;;;4954065;29;20043;-83
2022/05/28 06:58:57;;;;;;;22.42;3.03;;;;;;;;;;4960579;28;20411;-84
2022/05/28 07:01:23;;;;;;;18.83;3.20;;;;;;;;;;4946505;28;20057;-86
2022/05/28 07:03:50;;;;;;;13.18;2.83;;;;;;;;;;4960824;29;20835;-83
2022/05/28 07:06:47;;;;;;;15.48;3.25;;;;;;;;;;4958414;28;20039;-87
2022/05/28 07:09:22;;;;;;;18.55;2.88;;;;;;;;;;4974805;28;20097;-83
2022/05/28 07:11:49;;;;;;;16.08;3.15;;;;;;;;;;4966797;28;20054;-84
2022/05/28 07:14:16;;;;;;;20.15;3.50;;;;;;;;;;4950610;29;20039;-83
2022/05/28 07:16:42;;;;;;;22.73;4.65;;;;;;;;;;4967817;29;20061;-83
2022/05/28 07:19:23;;;;;;;22.65;3.60;;;;;;;;;;4945694;29;20128;-83
2022/05/28 07:21:54;;;;;;;19.92;3.55;;;;;;;;;;4959923;28;20047;-86
2022/05/28 07:24:20;;;;;;;22.45;3.50;;;;;;;;;;4961798;29;20057;-83
2022/05/28 07:26:56;;;;;;;18.60;2.92;;;;;;;;;;4947222;29;20410;-84
2022/05/28 07:29:22;;;;;;;21.08;3.75;;;;;;;;;;4962264;28;20047;-86
2022/05/28 07:32:00;;;;;;;17.15;3.05;;;;;;;;;;4956001;28;20051;-84
2022/05/28 07:34:26;;;;;;;19.10;3.35;;;;;;;;;;4962085;28;20057;-84
2022/05/28 07:36:52;;;;;;;24.27;4.15;;;;;;;;;;4944466;29;20064;-84
2022/05/28 07:39:28;;;;;;;15.60;3.15;;;;;;;;;;4941827;28;20049;-84
2022/05/28 07:41:54;;;;;;;25.17;3.40;;;;;;;;;;4935302;29;20043;-84
2022/05/28 07:44:29;;;;;;;19.70;3.95;;;;;;;;;;4958563;29;20039;-85
2022/05/28 07:46:55;;;;;;;19.38;3.35;;;;;;;;;;4971439;28;20037;-85
2022/05/28 07:52:38;;;;;;;23.63;3.70;;;;;;;;;;4965121;28;20038;-87
2022/05/28 07:55:04;;;;;;;21.77;3.38;;;;;;;;;;4966760;29;20059;-83
2022/05/28 07:57:40;;;;;;;19.08;3.15;;;;;;;;;;4949645;29;20055;-83
2022/05/28 08:00:08;;;;;;;23.42;4.05;;;;;;;;;;4966194;29;20040;-83
2022/05/28 08:02:45;;;;;;;22.90;3.05;;;;;;;;;;4979891;28;20045;-83
2022/05/28 08:05:12;;;;;;;14.27;2.53;;;;;;;;;;4946788;29;20051;-86
2022/05/28 08:08:10;;;;;;;17.33;3.60;;;;;;;;;;4962177;28;20123;-86
2022/05/28 08:10:36;;;;;;;22.05;4.20;;;;;;;;;;4961352;29;20170;-85
2022/05/28 08:13:07;;;;;;;18.42;3.42;;;;;;;;;;4965116;29;20040;-84
2022/05/28 08:15:56;;;;;;;24.63;3.58;;;;;;;;;;4949817;29;20410;-86
2022/05/28 08:18:23;;;;;;;16.40;3.42;;;;;;;;;;4961073;29;20047;-84
2022/05/28 08:23:34;;;;;;;13.32;3.10;;;;;;;;;;4951660;28;20051;-84
2022/05/28 08:26:21;;;;;;;21.52;3.03;;;;;;;;;;4968622;28;20046;-84
2022/05/28 08:28:48;;;;;;;16.73;3.28;;;;;;;;;;4957277;28;20043;-84
2022/05/28 08:31:14;;;;;;;25.13;2.88;;;;;;;;;;4958574;28;20061;-84
2022/05/28 08:33:40;;;;;;;23.08;3.00;;;;;;;;;;4960498;28;20043;-84
2022/05/28 08:36:10;;;;;;;15.82;3.58;;;;;;;;;;4942593;29;20539;-84
2022/05/28 08:38:39;;;;;;;19.92;2.90;;;;;;;;;;4960577;29;20074;-88
2022/05/28 08:41:16;;;;;;;17.58;3.03;;;;;;;;;;4943226;29;20039;-84
2022/05/28 08:44:03;;;;;;;17.80;2.95;;;;;;;;;;4943743;29;20106;-86
2022/05/28 08:46:38;;;;;;;16.02;2.42;;;;;;;;;;4927737;29;20055;-86
2022/05/28 08:49:07;;;;;;;14.15;2.92;;;;;;;;;;4965104;28;20047;-84
2022/05/28 08:52:14;;;;;;;16.27;3.15;;;;;;;;;;4961709;28;20047;-86
2022/05/28 08:58:28;;;;;;;16.05;3.08;;;;;;;;;;4962753;29;20062;-85
2022/05/28 09:07:34;;;;;;;17.65;2.88;;;;;;;;;;4971503;29;20038;-84
2022/05/28 09:10:18;;;;;;;16.55;3.28;;;;;;;;;;4954767;29;20069;-85
2022/05/28 09:16:26;;;;;;;14.23;3.13;;;;;;;;;;4992303;23;20053;-86
2022/05/28 09:19:16;;;;;;;16.05;3.38;;;;;;;;;;4909277;29;20549;-86
2022/05/28 09:21:44;;;;;;;20.40;3.40;;;;;;;;;;4885974;29;20148;-86
2022/05/28 09:24:13;;;;;;;20.15;3.67;;;;;;;;;;4884600;29;20062;-84
2022/05/28 09:26:45;;;;;;;17.80;3.28;;;;;;;;;;4902281;29;20124;-85
2022/05/28 09:29:25;;;;;;;12.82;2.20;;;;;;;;;;4902037;29;20060;-86
2022/05/28 09:32:17;;;;;;;15.90;3.35;;;;;;;;;;4903242;29;20055;-85
2022/05/28 09:35:08;;;;;;;12.95;2.20;;;;;;;;;;4878734;29;20052;-85
2022/05/28 09:37:56;;;;;;;14.60;2.58;;;;;;;;;;4885813;29;20098;-87
2022/05/28 09:40:22;;;;;;;16.20;2.38;;;;;;;;;;4887359;29;20077;-88
2022/05/28 09:43:42;;;;;;;18.13;3.15;;;14.10;99.90;;;;;;4919339;29;20054;-88
2022/05/28 09:46:30;;;;;;;13.02;2.65;;;;;;;;;;4931404;29;20486;-87
2022/05/28 09:49:17;;;;;;;12.82;2.10;;;;;;;;;;4943717;29;20062;-84
2022/05/28 09:52:04;;;;;;;;;;;;;;;;;;4940160;29;20032;-86
2022/05/28 09:54:33;;;;;;;15.25;2.30;;;;;;;;;;4947294;29;19923;-87
2022/05/28 09:57:31;;;;;;;13.10;3.05;;;;;;;;;;4952457;29;20540;-85
2022/05/28 10:00:08;;;;;;;15.07;3.40;;;;;;;;;;4905440;29;20052;-86
2022/05/28 10:02:42;;;;;;;18.48;3.03;;;;;;;;;;4945619;29;20052;-88
2022/05/28 10:05:27;;;;;;;16.00;2.70;;;;;;;;;;4924980;29;20056;-88
2022/05/28 10:08:09;;;;;;;13.65;2.70;;;;;;;;;;4941432;29;20050;-87
2022/05/28 10:10:41;;;;;;;15.60;3.03;;;;;;;;;;4935390;29;20056;-85
2022/05/28 10:13:09;;;;;;;10.48;1.90;;;;;;;;;;4954908;29;20051;-86
2022/05/28 10:15:45;;;;;;;14.88;2.25;;;;;;;;;;4934279;29;20058;-86
2022/05/28 10:18:13;;;;;;;13.07;1.77;;;;;;;;;;4942129;29;20065;-85
2022/05/28 10:20:40;;;;;;;10.80;2.08;;;;;;;;;;4946655;29;20044;-88
2022/05/28 10:23:16;;;;;;;13.80;2.42;;;;;;;;;;4934036;29;20059;-86
2022/05/28 10:25:48;;;;;;;12.55;2.63;;;;;;;;;;4923202;29;20071;-86
2022/05/28 10:28:26;;;;;;;14.05;2.53;;;;;;;;;;4942269;29;20060;-87
2022/05/28 10:30:53;;;;;;;14.88;2.72;;;;;;;;;;4957269;23;20082;-87
2022/05/28 10:33:21;;;;;;;13.98;2.10;;;;;;;;;;4924937;29;20146;-85
2022/05/28 10:35:48;;;;;;;14.38;2.28;;;;;;;;;;4944505;29;20048;-86
2022/05/28 10:38:15;;;;;;;14.15;2.28;;;;;;;;;;4922894;29;20047;-87
2022/05/28 10:40:59;;;;;;;16.58;2.85;;;;;;;;;;4940436;29;20066;-85
2022/05/28 10:43:38;;;;;;;14.85;2.67;;;;;;;;;;4939497;29;20062;-83
2022/05/28 10:46:20;;;;;;;14.07;2.38;;;;;;;;;;4940738;29;20047;-83
2022/05/28 10:48:51;;;;;;;15.93;2.65;;;;;;;;;;4927560;29;20039;-85
2022/05/28 10:51:36;;;;;;;16.75;3.17;;;;;;;;;;4959658;28;20045;-85
2022/05/28 10:54:27;;;;;;;20.83;2.72;;;;;;;;;;4930785;29;20036;-88
2022/05/28 10:57:01;;;;;;;17.02;3.38;;;;;;;;;;4947160;29;20050;-86
2022/05/28 10:59:54;;;;;;;11.40;2.13;;;;;;;;;;4946134;29;20050;-88
2022/05/28 11:02:33;;;;;;;10.43;2.50;;;;;;;;;;4918229;29;20404;-86
2022/05/28 11:05:00;;;;;;;10.93;2.65;;;;;;;;;;4950932;28;20047;-89
2022/05/28 11:07:35;;;;;;;11.25;2.35;;;;;;;;;;4945760;29;20052;-86
2022/05/28 11:10:02;;;;;;;14.18;4.22;;;;;;;;;;4922654;29;20047;-87
2022/05/28 11:12:49;;;;;;;16.67;2.60;;;;;;;;;;4924934;29;20055;-82
2022/05/28 11:15:20;;;;;;;9.82;2.50;;;;;;;;;;4930341;29;20043;-85
2022/05/28 11:17:57;;;;;;;9.88;2.10;;;;;;;;;;4931026;29;20051;-87
2022/05/28 11:20:45;;;;;;;16.40;2.92;;;;;;;;;;4946573;29;20043;-83
2022/05/28 11:23:34;;;;;;;15.48;2.83;;;;;;;;;;4910392;29;20054;-85
2022/05/28 11:26:03;;;;;;;13.57;2.50;;;;;;;;;;4939043;29;20051;-85
2022/05/28 11:28:39;;;;;;;10.27;1.90;;;;;;;;;;4921917;29;20066;-83
2022/05/28 11:31:29;;;;;;;14.05;2.17;;;;;;;;;;4921060;29;20066;-85
2022/05/28 11:34:07;;;;;;;10.82;2.40;;;;;;;;;;4907995;29;20133;-86
2022/05/28 11:36:37;;;;;;;10.10;2.47;;;;;;;;;;4928223;29;20047;-86
2022/05/28 11:39:09;;;;;;;16.05;2.15;;;;;;;;;;4946477;29;20050;-89
2022/05/28 11:41:36;;;;;;;11.20;2.10;;;;;;;;;;4945954;29;20050;-85
2022/05/28 11:44:06;;;;;;;13.50;2.40;;;;;;;;;;4946278;29;20106;-85
2022/05/28 11:46:36;;;;;;;11.38;2.10;;;;;;;;;;4945161;29;20050;-85
2022/05/28 11:52:32;;;;;;;11.88;1.92;;;;;;;;;;4939471;29;20047;-85
2022/05/28 11:55:13;;;;;;;12.45;2.15;;;;;;;;;;4935788;29;20058;-87
2022/05/28 11:57:44;;;;;;;12.55;2.53;;;;;;;;;;4945363;29;20364;-86
2022/05/28 12:00:11;;;;;;;14.13;1.85;;;;;;;;;;4944809;29;20026;-87
2022/05/28 12:02:44;;;;;;;19.95;2.83;;;;;;;;;;4927157;29;20048;-85
2022/05/28 12:05:18;;;;;;;13.07;3.90;;;;;;;;;;4928282;29;20079;-87
2022/05/28 12:07:44;;;;;;;;;;;;;;;;;;4944456;29;20051;-87
2022/05/28 12:10:17;;;;;;;12.57;2.60;;;;;;;;;;4944150;29;19931;-86
2022/05/28 12:13:01;;;;;;;16.92;2.90;;;;;;;;;;4927585;29;20047;-86
2022/05/28 12:15:32;;;;;;;17.30;2.50;;;;;;;;;;4943051;29;20427;-86
2022/05/28 12:17:58;;;;;;;15.00;2.90;;;;;;;;;;4944641;29;20052;-85
2022/05/28 12:20:47;;;;;;;17.58;2.95;;;;;;;;;;4948039;28;20059;-85
2022/05/28 12:23:13;;;;;;;15.07;2.88;;;;;;;;;;4953908;29;20166;-85
2022/05/28 12:25:40;;;;;;;13.07;2.90;;;;;;;;;;4949342;28;20070;-84
2022/05/28 12:28:12;;;;;;;10.70;2.53;;;;;;;;;;4952586;29;20500;-85
2022/05/28 12:30:43;;;;;;;12.63;1.60;;;;;;;;;;4953442;29;20179;-84
2022/05/28 12:33:28;;;;;;;9.38;1.42;;;;;;;;;;4951643;29;20103;-83
2022/05/28 12:36:09;;;;;;;7.10;1.60;;;;;;;;;;4945224;29;20067;-87
2022/05/28 12:38:54;;;;;;;8.68;1.42;;;;;;;;;;4928457;29;20076;-86
2022/05/28 12:41:31;;;;;;;9.13;1.80;;;;;;;;;;4943718;29;20039;-87
2022/05/28 12:44:09;;;;;;;12.38;4.07;;;;;;;;;;4945336;29;20072;-85
2022/05/28 12:46:35;;;;;;;14.73;5.90;;;;;;;;;;4945407;29;20519;-86
2022/05/28 12:49:10;;;;;;;8.18;2.30;;;;;;;;;;4944057;29;20072;-87
2022/05/28 12:52:04;;;;;;;9.48;1.83;;;;;;;;;;4913297;29;20044;-85
2022/05/28 12:54:37;;;;;;;11.70;1.80;;;;;;;;;;4925913;29;20376;-86
2022/05/28 12:57:06;;;;;;;11.05;2.40;;;;;;;;;;4924420;29;20078;-85
2022/05/28 12:59:37;;;;;;;9.95;2.13;;;;;;;;;;4938663;29;20058;-86
2022/05/28 13:02:09;;;;;;;15.25;2.17;;;;;;;;;;4942924;29;20091;-86
2022/05/28 13:04:43;;;;;;;10.75;2.33;;;;;;;;;;4939187;29;20044;-86
2022/05/28 13:07:20;;;;;;;15.20;2.92;;;;;;;;;;4942701;29;20058;-84
2022/05/28 13:09:46;;;;;;;13.60;2.33;;;;;;;;;;4914807;29;20107;-85
2022/05/28 13:12:12;;;;;;;10.32;2.50;;;;;;;;;;4945844;29;20040;-87
2022/05/28 13:14:38;;;;;;;11.25;1.98;;;;;;;;;;4925967;29;20095;-83
2022/05/28 13:17:17;;;;;;;13.15;2.70;;;;;;;;;;4922546;29;20039;-84
2022/05/28 13:20:00;;;;;;;12.13;2.45;;;;;;;;;;4943244;29;20213;-83
2022/05/28 13:22:29;;;;;;;17.77;2.72;;;;;;;;;;4927976;29;20085;-85
2022/05/28 13:24:58;;;;;;;14.05;2.55;;;;;;;;;;4927521;29;20050;-85
2022/05/28 13:27:42;;;;;;;14.52;2.75;;;;;;;;;;4940738;29;20044;-84
2022/05/28 13:30:17;;;;;;;13.90;2.13;;;;;;;;;;4940366;29;20062;-86
2022/05/28 13:32:49;;;;;;;12.55;2.30;;;;;;;;;;4922621;29;20062;-85
2022/05/28 13:35:23;;;;;;;14.60;2.30;;;;;;;;;;4918261;29;20058;-84
2022/05/28 13:37:54;;;;;;;10.32;2.25;;;;;;;;;;4939128;29;20046;-87
2022/05/28 13:40:22;;;;;;;10.98;2.53;;;;;;;;;;4940652;29;20654;-84
2022/05/28 13:42:48;;;;;;;10.85;2.05;;;;;;;;;;4925619;29;20083;-85
2022/05/28 13:45:21;;;;;;;12.82;2.28;;;;;;;;;;4927738;29;20079;-85
2022/05/28 13:48:02;;;;;;;10.20;2.35;;;;;;;;;;4919728;29;20115;-83
2022/05/28 13:50:29;;;;;;;13.13;2.58;;;;;;;;;;4937577;29;20063;-84
2022/05/28 13:52:58;;;;;;;14.07;2.13;;;;;;;;;;4918273;29;20103;-84
2022/05/28 13:55:26;;;;;;;15.27;3.13;;;;;;;;;;4919378;29;20060;-83
2022/05/28 13:57:52;;;;;;;15.45;2.95;;;;;;;;;;4934510;29;20039;-83
2022/05/28 14:00:19;;;;;;;10.95;2.55;;;;;;;;;;4932717;29;20075;-82
2022/05/28 14:03:05;;;;;;;10.32;2.33;;;;;;;;;;4905566;29;20079;-83
2022/05/28 14:05:34;;;;;;;10.95;2.28;;;;;;;;;;4935662;29;20046;-82
2022/05/28 14:08:05;;;;;;;16.20;2.33;;;;;;;;;;4932702;29;20126;-84
2022/05/28 14:10:35;;;;;;;6.95;1.65;;;;;;;;;;4936927;29;20090;-84
2022/05/28 14:13:01;;;;;;;8.10;2.13;;;;;;;;;;4921169;29;20051;-84
2022/05/28 14:15:30;;;;;;;6.20;1.63;;;;;;;;;;4929742;29;20098;-83
2022/05/28 14:17:56;;;;;;;5.78;1.38;;;;;;;;;;4949835;29;20043;-84
2022/05/28 14:20:31;;;;;;;4.07;1.17;;;;;;;;;;4940791;29;20076;-83
2022/05/28 14:22:58;;;;;;;5.68;1.33;;;;;;;;;;4937694;29;20040;-83
2022/05/28 14:25:32;;;;;;;6.55;1.42;;;;;;;;;;4951735;28;20063;-83
2022/05/28 14:28:07;;;;;;;9.45;1.80;;;;;;;;;;4939888;29;20095;-82
2022/05/28 14:30:35;;;;;;;7.85;1.50;;;;;;;;;;4925513;29;20060;-83
2022/05/28 14:33:02;;;;;;;3.85;1.42;;;;;;;;;;4938100;29;20564;-85
2022/05/28 14:35:45;;;;;;;6.75;1.90;;;;;;;;;;4930040;28;20051;-83
2022/05/28 14:38:12;;;;;;;13.43;3.10;;;;;;;;;;4909323;29;20102;-84
2022/05/28 14:40:52;;;;;;;10.40;2.40;;;;;;;;;;4912060;29;20055;-84
2022/05/28 14:43:20;;;;;;;9.05;1.65;;;;;;;;;;4943119;29;20065;-85
2022/05/28 14:45:47;;;;;;;16.02;2.03;;;;;;;;;;4929898;29;20081;-83
2022/05/28 14:48:24;;;;;;;13.13;2.03;;;;;;;;;;4947250;29;20090;-84
2022/05/28 14:51:00;;;;;;;11.60;2.17;;;;;;;;;;4930785;29;20059;-85
2022/05/28 14:53:34;;;;;;;8.68;1.65;;;;;;;;;;4927744;29;20066;-83
2022/05/28 14:56:10;;;;;;;13.52;2.03;;;;;;;;;;4945004;29;20162;-85
2022/05/28 14:58:40;;;;;;;14.88;2.60;;;;;;;;;;4934044;29;20048;-84
2022/05/28 15:01:08;;;;;;;16.52;2.08;;;;;;;;;;4958762;29;20114;-86
2022/05/28 15:03:35;;;;;;;16.23;2.38;;;;;;;;;;4962175;28;20042;-86
2022/05/28 15:06:09;;;;;;;7.95;1.83;;;;;;;;;;4948183;29;20047;-84
2022/05/28 15:08:38;;;;;;;11.27;2.17;;;;;;;;;;4941500;29;20051;-85
2022/05/28 15:11:06;;;;;;;16.30;2.67;;;;;;;;;;4942325;29;20094;-87
2022/05/28 15:13:34;;;;;;;17.08;2.10;;;;;;;;;;4925650;29;20140;-84
2022/05/28 15:16:09;;;;;;;16.27;2.60;;;;;;;;;;4940793;29;20036;-86
2022/05/28 15:18:36;;;;;;;18.65;2.83;;;;;;;;;;4937455;29;20046;-86
2022/05/28 15:24:13;;;;;;;14.02;2.88;;;;;;;;;;4941930;29;20135;-85
2022/05/28 15:26:51;;;;;;;15.50;2.60;;;;;;;;;;4938460;29;20055;-85
2022/05/28 15:29:23;;;;;;;16.05;3.25;;;;;;;;;;4946023;28;20055;-85
2022/05/28 15:31:49;;;;;;;16.60;2.50;;;;;;;;;;4923216;29;20056;-84
2022/05/28 15:34:21;;;;;;;17.83;3.20;;;;;;;;;;4925945;29;20051;-85
2022/05/28 15:39:32;;;;;;;10.70;2.17;;;;;;;;;;4916911;29;20040;-86
2022/05/28 15:41:59;;;;;;;16.55;3.75;;;;;;;;;;4922161;29;20040;-86
2022/05/28 15:44:28;;;;;;;16.25;2.50;;;;;;;;;;4934915;29;20035;-86
2022/05/28 15:46:58;;;;;;;12.30;2.15;;;;;;;;;;4926982;29;20051;-84
2022/05/28 15:49:30;;;;;;;16.23;2.75;;;;;;;;;;4911282;29;20059;-87
2022/05/28 15:51:56;;;;;;;10.55;2.28;;;;;;;;;;4943660;29;20070;-86
2022/05/28 15:54:22;;;;;;;12.18;2.47;;;;;;;;;;4943451;29;20050;-86
2022/05/28 15:56:50;;;;;;;16.92;2.35;;;;;;;;;;4941607;29;20047;-85
2022/05/28 15:59:18;;;;;;;16.00;2.83;;;;;;;;;;4942178;29;20088;-85
2022/05/28 16:01:44;;;;;;;11.13;2.13;;;;;;;;;;4949485;28;20046;-84
2022/05/28 16:04:10;;;;;;;13.38;2.35;;;;;;;;;;4932064;29;20114;-84
2022/05/28 16:06:36;;;;;;;14.00;3.03;;;;;;;;;;4949030;29;20083;-85
2022/05/28 16:09:03;;;;;;;13.23;3.13;;;;;;;;;;4950843;29;20047;-83
2022/05/28 16:11:32;;;;;;;10.73;2.53;;;;;;;;;;4917071;29;20044;-85
2022/05/28 16:14:01;;;;;;;13.07;2.42;;;;;;;;;;4929728;29;20055;-85
2022/05/28 16:16:27;;;;;;;18.48;3.53;;;;;;;;;;4940937;29;20138;-84
2022/05/28 16:18:56;;;;;;;18.55;2.75;;;;;;;;;;4948376;29;20069;-84
2022/05/28 16:21:23;;;;;;;14.77;2.70;;;;;;;;;;4922567;29;20106;-85
2022/05/28 16:23:49;;;;;;;18.33;2.65;;;;;;;;;;4935263;29;20059;-84
2022/05/28 16:26:18;;;;;;;18.73;3.08;;;;;;;;;;4940491;29;20055;-86
2022/05/28 16:28:45;;;;;;;20.98;3.30;;;;;;;;;;4927789;29;20484;-84
2022/05/28 16:31:12;;;;;;;14.40;2.90;;;;;;;;;;4942692;29;20051;-84
2022/05/28 16:33:39;;;;;;;13.90;2.80;;;;;;;;;;4920435;29;20052;-84
2022/05/28 16:36:06;;;;;;;11.15;2.58;;;;;;;;;;4923275;29;20654;-85
2022/05/28 16:38:32;;;;;;;17.08;3.08;;;;;;;;;;4938673;29;20044;-84
2022/05/28 16:41:00;;;;;;;18.17;3.42;;;;;;;;;;4940946;29;20131;-85
2022/05/28 16:43:32;;;;;;;20.67;2.85;;;;;;;;;;4939213;29;20070;-84
2022/05/28 16:45:59;;;;;;;16.90;2.22;;;;;;;;;;4908962;29;20044;-85
2022/05/28 16:48:25;;;;;;;15.15;2.80;;;;;;;;;;4940987;29;20071;-84
2022/05/28 16:50:51;;;;;;;8.25;2.03;;;;;;;;;;4938558;29;20052;-82
2022/05/28 16:53:17;;;;;;;14.30;2.70;;;;;;;;;;4935526;29;20058;-84
2022/05/28 16:55:45;;;;;;;15.70;2.70;;;;;;;;;;4935611;29;20569;-84
2022/05/28 16:58:11;;;;;;;20.48;2.85;;;;;;;;;;4919659;29;20134;-84
2022/05/28 17:00:38;;;;;;;20.42;3.72;;;;;;;;;;4911864;29;20067;-86
2022/05/28 17:03:07;;;;;;;20.75;3.53;;;;;;;;;;4927558;29;20039;-85
2022/05/28 17:05:34;;;;;;;23.60;3.45;;;;;;;;;;4944924;28;20965;-84
2022/05/28 17:08:00;;;;;;;11.57;2.55;;;;;;;;;;4949856;28;20550;-84
2022/05/28 17:10:44;;;;;;;23.42;3.72;;;;;;;;;;4925731;29;20115;-85
2022/05/28 17:13:13;;;;;;;15.55;2.92;;;;;;;;;;4939875;29;20130;-85
2022/05/28 17:15:39;;;;;;;19.33;3.88;;;;;;;;;;4920484;29;20048;-85
2022/05/28 17:18:05;;;;;;;23.50;3.90;;;;;;;;;;4944117;28;20048;-85
2022/05/28 17:20:32;;;;;;;18.77;3.40;;;;;;;;;;4919473;29;20141;-85
2022/05/28 17:22:59;;;;;;;18.30;3.25;;;;;;;;;;4936944;29;20110;-84
2022/05/28 17:25:47;;;;;;;16.95;2.80;;;;;;;;;;4924645;29;20043;-86
2022/05/28 17:28:14;;;;;;;17.05;3.50;;;;;;;;;;4924221;29;20133;-87
2022/05/28 17:30:50;;;;;;;20.33;3.42;;;;;;;;;;4930258;29;20031;-85
2022/05/28 17:33:21;;;;;;;15.35;2.95;;;;;;;;;;4948120;29;20055;-83
2022/05/28 17:35:55;;;;;;;14.82;2.47;;;;;;;;;;4930807;29;20056;-85
2022/05/28 17:38:22;;;;;;;17.40;3.15;;;;;;;;;;4910666;29;20062;-86
2022/05/28 17:40:48;;;;;;;23.80;3.13;;;;;;;;;;4921037;29;20048;-84
2022/05/28 17:43:23;;;;;;;17.92;3.33;;;;;;;;;;4919138;29;20048;-86
2022/05/28 17:45:49;;;;;;;16.15;3.05;;;;;;;;;;4938284;29;20049;-85
2022/05/28 17:48:25;;;;;;;18.90;2.70;;;;;;;;;;4932825;29;20051;-86
2022/05/28 17:50:53;;;;;;;26.50;3.70;;;;;;;;;;4918106;29;20071;-85
2022/05/28 17:53:32;;;;;;;16.05;3.10;;;;;;;;;;4914598;29;20107;-87
2022/05/28 17:56:55;;;;;;;12.40;3.08;;;;;;;;;;4916102;29;20051;-85
2022/05/28 17:58:59;;;;;;;14.85;3.53;;;;;;;;;;4905475;29;20507;-90
2022/05/28 18:01:38;;;;;;;24.42;3.28;;;;;;;;;;4932106;29;20103;-87
2022/05/28 18:04:23;;;;;;;19.45;3.03;;;;;;;;;;4933509;29;20158;-88
2022/05/28 18:13:20;;;;;;;21.45;3.97;;;;;;;;;;4936287;29;20110;-86
2022/05/28 18:16:01;;;;;;;21.45;3.50;;;;;;;;;;4900077;29;20050;-86
2022/05/28 18:30:46;;;;;;;16.88;3.45;;;;;;;;;;4964080;23;20052;-88
2022/05/28 18:33:34;;;;;;;20.95;3.53;;;;;;;;;;4921086;29;20103;-88
2022/05/28 18:36:01;;;;;;;13.55;3.25;;;;;;;;;;4897566;29;20933;-86
2022/05/28 18:38:29;;;;;;;19.35;3.55;;;;;;;;;;4879775;29;20053;-86
2022/05/28 18:40:57;;;;;;;20.70;3.60;;;;;;;;;;4868300;29;20086;-86
2022/05/28 18:43:32;;;;;;;17.42;3.25;;;;;;;;;;4865261;29;20055;-86
2022/05/28 18:46:05;;;;;;;15.07;3.33;;;;;;;;;;4898153;29;20044;-84
2022/05/28 18:48:50;;;;;;;18.67;3.60;;;;;;;;;;4899841;29;20037;-88
2022/05/28 18:51:28;;;;;;;18.67;3.33;;;;;;;;;;4876428;29;20059;-85
2022/05/28 18:54:07;;;;;;;20.80;3.72;;;;;;;;;;4863317;29;20128;-86
2022/05/28 18:56:57;;;;;;;25.10;3.60;;;;;;;;;;4892663;29;20064;-87
2022/05/28 18:59:38;;;;;;;17.55;2.95;;;;;;;;;;4880806;29;20052;-86
2022/05/28 19:02:05;;;;;;;20.58;3.75;;;;;;;;;;4880891;29;20048;-88
2022/05/28 19:04:42;;;;;;;19.77;4.10;;;;;;;;;;4881292;29;20059;-89
2022/05/28 19:07:24;;;;;;;16.40;4.03;;;;;;;;;;4876525;29;20086;-88
2022/05/28 19:10:07;;;;;;;18.77;3.60;;;;;;;;;;4902443;29;20056;-85
2022/05/28 19:12:48;;;;;;;15.82;4.38;;;;;;;;;;4927321;29;20048;-87
2022/05/28 19:15:17;;;;;;;17.98;5.00;;;;;;;;;;4925898;29;20067;-88
2022/05/28 19:17:45;;;;;;;21.73;5.22;;;;;;;;;;4928839;29;20083;-89
2022/05/28 19:20:14;;;;;;;27.02;4.75;;;;;;;;;;4909524;29;20035;-88
2022/05/28 19:22:40;;;;;;;18.17;3.75;;;;;;;;;;4915661;29;20104;-86
2022/05/28 19:28:23;;;;;;;20.70;4.22;;;;;;;;;;4937811;29;20066;-86
2022/05/28 19:30:49;;;;;;;15.90;3.92;;;;;;;;;;4916843;29;20091;-85
2022/05/28 19:33:45;;;;;;;18.38;4.07;;;;;;;;;;4934810;29;20044;-86
2022/05/28 19:36:14;;;;;;;21.70;4.70;;;;;;;;;;4937645;29;20048;-86
2022/05/28 19:38:46;;;;;;;22.50;3.70;;;;;;;;;;4907933;29;20055;-87
2022/05/28 19:41:33;;;;;;;22.42;4.05;;;;;;;;;;4908450;29;20051;-85
2022/05/28 19:44:11;;;;;;;24.70;3.85;;;;;;;;;;4924066;29;20107;-86
2022/05/28 19:46:49;;;;;;;23.80;5.68;;;;;;;;;;4907500;29;20048;-87
2022/05/28 19:49:44;;;;;;;20.65;3.28;;;;;;;;;;4918867;29;20123;-86
2022/05/28 19:52:10;;;;;;;17.13;4.03;;;;;;;;;;4918330;29;20110;-85
2022/05/28 19:54:55;;;;;;;25.40;5.50;;;;;;;;;;4918811;29;20059;-91
2022/05/28 19:57:28;;;;;;;20.15;4.53;;;;;;;;;;4921666;29;20137;-89
2022/05/28 20:00:11;;;;;;;22.70;5.05;;;;;;;;;;4940884;29;20043;-87
2022/05/28 20:02:52;;;;;;;16.70;4.60;;;;;;;;;;4944523;29;20236;-86
2022/05/28 20:05:20;;;;;;;20.95;4.75;;;;;;;;;;4945143;29;20048;-87